Time;durP1;ratioP1;P1;durP2;ratioP2;P2;SDS_P1;SDS_P2;PMS_P1;PMS_P2;Temp;Humidity;BMP_temperature;BMP_pressure;BME280_temperature;BME280_humidity;BME280_pressure;Samples;Min_cycle;Max_cycle;Signal;HPM_P1;HPM_P2
2022/07/25 00:01:03;;;;;;;6.20;5.57;;;25.60;69.80;;;;;;5015519;28;20412;-83
2022/07/25 00:03:28;;;;;;;6.65;5.95;;;25.60;70.00;;;;;;5031042;28;20048;-82
2022/07/25 00:05:54;;;;;;;6.38;5.78;;;25.50;69.90;;;;;;5014385;28;20038;-82
2022/07/25 00:08:20;;;;;;;6.25;5.57;;;25.50;70.00;;;;;;5015478;28;20037;-83
2022/07/25 00:10:46;;;;;;;6.00;5.45;;;25.50;70.00;;;;;;5013758;28;20120;-83
2022/07/25 00:13:12;;;;;;;9.13;6.00;;;25.50;70.00;;;;;;5013619;28;20132;-83
2022/07/25 00:15:38;;;;;;;6.03;5.32;;;25.50;70.00;;;;;;5015400;28;20516;-80
2022/07/25 00:18:04;;;;;;;6.18;5.53;;;25.50;70.30;;;;;;5015286;28;20064;-83
2022/07/25 00:20:30;;;;;;;5.93;5.38;;;25.50;70.30;;;;;;5015690;28;20634;-83
2022/07/25 00:22:56;;;;;;;6.68;5.50;;;25.40;70.30;;;;;;5015411;28;20600;-82
2022/07/25 00:25:22;;;;;;;6.55;5.95;;;25.50;70.40;;;;;;5013660;28;20037;-82
2022/07/25 00:27:48;;;;;;;5.78;5.28;;;25.40;70.40;;;;;;5016122;28;20049;-82
2022/07/25 00:30:13;;;;;;;7.35;5.55;;;25.40;70.50;;;;;;5016498;28;20337;-83
2022/07/25 00:32:39;;;;;;;6.15;5.55;;;25.40;70.40;;;;;;5004733;28;20025;-82
2022/07/25 00:35:06;;;;;;;6.95;5.57;;;25.40;70.30;;;;;;5015094;28;20038;-82
2022/07/25 00:37:32;;;;;;;6.25;5.45;;;25.40;70.40;;;;;;5012745;28;20045;-83
2022/07/25 00:39:58;;;;;;;7.00;5.25;;;25.40;70.60;;;;;;5002802;28;20573;-83
2022/07/25 00:42:24;;;;;;;6.00;5.28;;;25.30;70.70;;;;;;5014820;28;20295;-84
2022/07/25 00:44:51;;;;;;;5.80;5.25;;;25.30;70.60;;;;;;5018312;28;20353;-84
2022/07/25 00:47:17;;;;;;;6.40;5.50;;;25.40;70.60;;;;;;5015324;28;20508;-83
2022/07/25 00:49:43;;;;;;;6.68;5.68;;;25.30;70.40;;;;;;5015758;28;20041;-84
2022/07/25 00:52:09;;;;;;;7.43;5.93;;;25.30;70.40;;;;;;5003213;28;20505;-83
2022/07/25 00:54:35;;;;;;;6.10;5.50;;;25.30;70.30;;;;;;5014761;28;20416;-83
2022/07/25 00:57:01;;;;;;;6.13;5.47;;;25.30;70.40;;;;;;5014267;28;20034;-83
2022/07/25 00:59:27;;;;;;;6.25;5.53;;;25.20;70.80;;;;;;4997198;28;20033;-83
2022/07/25 01:01:53;;;;;;;6.60;5.45;;;25.20;70.80;;;;;;5014521;28;20068;-82
2022/07/25 01:04:19;;;;;;;6.13;5.45;;;25.30;71.00;;;;;;5013157;28;20172;-83
2022/07/25 01:06:45;;;;;;;5.70;5.18;;;25.30;70.60;;;;;;5013790;28;20030;-83
2022/07/25 01:09:11;;;;;;;6.50;5.40;;;25.20;70.50;;;;;;5014904;28;20045;-80
2022/07/25 01:11:38;;;;;;;6.22;5.63;;;25.20;70.70;;;;;;5015083;28;20029;-84
2022/07/25 01:14:05;;;;;;;6.05;5.28;;;25.20;70.50;;;;;;5013433;28;20248;-84
2022/07/25 01:16:31;;;;;;;6.47;5.53;;;25.20;70.70;;;;;;5013285;28;21233;-82
2022/07/25 01:18:57;;;;;;;5.18;4.68;;;25.20;70.90;;;;;;5014902;28;20420;-83
2022/07/25 01:21:24;;;;;;;5.90;5.30;;;25.20;71.40;;;;;;5014458;28;20125;-83
2022/07/25 01:23:50;;;;;;;6.68;5.50;;;25.20;71.10;;;;;;5014207;28;20115;-82
2022/07/25 01:26:16;;;;;;;6.25;5.60;;;25.20;71.10;;;;;;5014238;28;20026;-84
2022/07/25 01:28:42;;;;;;;5.82;5.32;;;25.10;71.10;;;;;;5014907;28;20133;-84
2022/07/25 01:31:08;;;;;;;5.80;5.30;;;25.20;71.20;;;;;;5014946;28;20030;-84
2022/07/25 01:33:34;;;;;;;6.80;5.43;;;25.20;71.30;;;;;;5014078;28;20038;-85
2022/07/25 01:36:00;;;;;;;5.78;5.28;;;25.10;71.40;;;;;;5015129;28;20080;-84
2022/07/25 01:38:26;;;;;;;5.80;4.82;;;25.10;71.40;;;;;;5032670;28;20429;-84
2022/07/25 01:40:52;;;;;;;5.40;4.78;;;25.10;71.50;;;;;;5017678;28;20068;-83
2022/07/25 01:43:18;;;;;;;6.65;5.10;;;25.10;71.60;;;;;;5021521;28;20038;-83
2022/07/25 01:45:44;;;;;;;6.25;5.05;;;25.10;71.60;;;;;;5017189;28;20358;-83
2022/07/25 01:48:10;;;;;;;7.22;5.93;;;25.10;71.40;;;;;;5017423;28;20061;-86
2022/07/25 01:50:36;;;;;;;6.53;4.85;;;25.10;71.20;;;;;;5021238;28;20053;-84
2022/07/25 01:53:02;;;;;;;6.05;5.30;;;25.10;71.10;;;;;;5019420;28;20036;-84
2022/07/25 01:55:28;;;;;;;6.00;5.18;;;25.00;71.20;;;;;;5017478;28;20460;-83
2022/07/25 01:57:54;;;;;;;5.63;5.13;;;25.00;71.50;;;;;;4999862;28;20169;-84
2022/07/25 02:00:20;;;;;;;5.50;5.00;;;25.00;71.60;;;;;;5017681;28;20093;-84
2022/07/25 02:02:46;;;;;;;6.50;5.60;;;25.10;71.50;;;;;;5016496;28;20460;-84
2022/07/25 02:05:14;;;;;;;7.15;5.35;;;25.00;71.50;;;;;;5016357;28;20041;-83
2022/07/25 02:07:40;;;;;;;5.93;5.35;;;25.00;71.60;;;;;;5004888;28;20044;-84
2022/07/25 02:10:07;;;;;;;5.63;5.13;;;25.00;71.40;;;;;;5017764;28;20033;-84
2022/07/25 02:12:33;;;;;;;5.72;5.15;;;25.00;71.40;;;;;;5015722;28;20121;-84
2022/07/25 02:14:59;;;;;;;5.80;4.95;;;25.00;71.30;;;;;;5016027;28;20361;-84
2022/07/25 02:17:25;;;;;;;5.28;4.75;;;25.00;71.50;;;;;;5017773;28;20033;-84
2022/07/25 02:19:51;;;;;;;6.32;5.20;;;25.00;71.60;;;;;;5016741;28;20038;-83
2022/07/25 02:22:17;;;;;;;5.72;4.93;;;25.00;71.80;;;;;;5032673;28;20412;-84
2022/07/25 02:24:43;;;;;;;6.03;5.43;;;25.00;71.80;;;;;;5000337;28;20037;-85
2022/07/25 02:27:09;;;;;;;5.45;4.95;;;25.10;71.70;;;;;;5016685;28;20033;-84
2022/07/25 02:29:35;;;;;;;6.35;5.05;;;25.20;71.60;;;;;;5017032;28;20038;-84
2022/07/25 02:32:01;;;;;;;5.50;5.00;;;25.20;71.40;;;;;;5016216;28;20033;-85
2022/07/25 02:34:27;;;;;;;6.13;5.30;;;25.30;71.40;;;;;;5015346;28;20033;-84
2022/07/25 02:36:53;;;;;;;5.28;4.78;;;25.40;71.40;;;;;;5017130;28;20125;-84
2022/07/25 02:39:20;;;;;;;5.20;4.70;;;25.50;71.60;;;;;;5016439;28;20033;-83
2022/07/25 02:41:46;;;;;;;5.72;5.20;;;25.60;71.80;;;;;;5013959;28;20084;-84
2022/07/25 02:44:12;;;;;;;5.80;4.60;;;25.60;71.50;;;;;;4998262;28;20042;-82
2022/07/25 02:46:38;;;;;;;4.90;4.40;;;25.70;71.70;;;;;;5016809;28;20397;-84
2022/07/25 02:49:04;;;;;;;5.20;4.70;;;25.80;71.80;;;;;;5015597;28;20042;-85
2022/07/25 02:51:30;;;;;;;6.30;5.22;;;25.80;72.00;;;;;;5016679;28;20042;-84
2022/07/25 02:53:56;;;;;;;5.93;5.05;;;25.90;70.20;;;;;;5017678;28;20412;-84
2022/07/25 02:56:21;;;;;;;5.55;4.78;;;26.00;70.00;;;;;;5017455;28;20034;-84
2022/07/25 02:58:47;;;;;;;6.00;5.18;;;26.00;69.40;;;;;;4999527;28;20403;-84
2022/07/25 03:01:13;;;;;;;5.97;5.35;;;26.00;69.20;;;;;;5029962;28;20030;-82
2022/07/25 03:03:39;;;;;;;5.60;5.10;;;26.10;69.10;;;;;;5036863;28;20045;-82
2022/07/25 03:06:05;;;;;;;6.50;5.65;;;26.00;68.90;;;;;;5008921;28;20030;-84
2022/07/25 03:08:31;;;;;;;7.25;5.63;;;26.00;68.90;;;;;;5021504;28;20052;-82
2022/07/25 03:10:57;;;;;;;5.43;4.78;;;26.00;68.90;;;;;;5017707;28;20420;-84
2022/07/25 03:13:24;;;;;;;5.82;5.13;;;26.10;70.00;;;;;;5015020;28;20051;-84
2022/07/25 03:15:50;;;;;;;5.97;5.38;;;26.10;70.40;;;;;;5015526;28;20029;-84
2022/07/25 03:18:16;;;;;;;6.10;4.97;;;26.00;70.90;;;;;;5004609;28;20029;-84
2022/07/25 03:20:42;;;;;;;6.35;5.75;;;26.10;70.80;;;;;;5016100;28;20517;-84
2022/07/25 03:23:08;;;;;;;5.88;5.25;;;26.00;71.30;;;;;;5014796;28;20048;-84
2022/07/25 03:25:34;;;;;;;7.57;5.38;;;26.00;71.20;;;;;;5016222;28;20607;-83
2022/07/25 03:28:00;;;;;;;6.50;5.07;;;26.00;71.20;;;;;;5015509;28;20036;-84
2022/07/25 03:30:26;;;;;;;6.25;5.03;;;26.00;71.00;;;;;;5014562;28;20112;-85
2022/07/25 03:32:53;;;;;;;6.97;5.47;;;26.00;70.90;;;;;;5013701;28;20077;-83
2022/07/25 03:35:19;;;;;;;5.20;4.70;;;26.00;70.70;;;;;;5015263;28;20025;-82
2022/07/25 03:37:45;;;;;;;5.05;4.55;;;26.00;70.80;;;;;;5015483;28;20121;-83
2022/07/25 03:40:12;;;;;;;6.20;5.32;;;26.00;71.20;;;;;;5015988;28;20421;-83
2022/07/25 03:42:38;;;;;;;6.95;5.30;;;26.00;71.10;;;;;;5015411;28;20037;-83
2022/07/25 03:45:04;;;;;;;6.13;4.78;;;26.00;71.20;;;;;;5013372;28;20038;-84
2022/07/25 03:47:30;;;;;;;5.57;4.72;;;26.00;70.90;;;;;;5015935;28;20095;-84
2022/07/25 03:49:56;;;;;;;5.75;5.05;;;26.10;70.90;;;;;;5014645;28;20029;-84
2022/07/25 03:52:22;;;;;;;6.47;5.15;;;26.20;69.90;;;;;;5014661;28;20044;-83
2022/07/25 03:54:48;;;;;;;6.80;4.50;;;26.30;69.10;;;;;;5012276;28;20062;-84
2022/07/25 03:57:14;;;;;;;6.13;4.95;;;26.40;68.70;;;;;;5016439;28;20529;-84
2022/07/25 03:59:40;;;;;;;5.15;4.68;;;26.50;68.40;;;;;;5015574;28;20055;-85
2022/07/25 04:02:06;;;;;;;7.32;5.10;;;26.60;68.20;;;;;;5014936;28;20045;-84
2022/07/25 04:04:32;;;;;;;6.28;5.20;;;26.60;68.00;;;;;;5014538;28;20746;-83
2022/07/25 04:06:58;;;;;;;7.10;5.10;;;26.70;67.80;;;;;;5018592;28;20509;-85
2022/07/25 04:09:24;;;;;;;5.72;4.72;;;26.80;67.80;;;;;;5012186;28;20041;-85
2022/07/25 04:11:50;;;;;;;5.47;4.75;;;26.90;67.60;;;;;;5015459;28;20064;-85
2022/07/25 04:14:16;;;;;;;6.65;4.90;;;27.00;67.60;;;;;;5002779;28;20039;-85
2022/07/25 04:16:42;;;;;;;5.75;4.30;;;27.00;67.40;;;;;;5015883;28;20044;-85
2022/07/25 04:19:08;;;;;;;5.55;5.05;;;27.10;67.40;;;;;;5013833;28;20103;-85
2022/07/25 04:21:34;;;;;;;4.82;4.35;;;27.10;67.30;;;;;;5029830;28;20038;-85
2022/07/25 04:24:00;;;;;;;4.40;4.00;;;27.20;67.20;;;;;;5014532;28;20064;-85
2022/07/25 04:26:26;;;;;;;5.43;4.80;;;27.30;67.10;;;;;;5013176;28;20528;-86
2022/07/25 04:28:52;;;;;;;4.65;4.25;;;27.30;67.00;;;;;;5015056;28;20064;-85
2022/07/25 04:31:18;;;;;;;5.32;4.55;;;27.40;66.90;;;;;;5021118;28;20456;-85
2022/07/25 04:33:44;;;;;;;5.20;4.80;;;27.40;66.90;;;;;;5012635;28;20133;-84
2022/07/25 04:36:11;;;;;;;4.93;4.10;;;27.50;66.90;;;;;;5014323;28;20034;-86
2022/07/25 04:38:37;;;;;;;5.97;4.70;;;27.60;66.90;;;;;;5019395;28;20065;-84
2022/07/25 04:41:03;;;;;;;4.38;3.97;;;27.60;66.80;;;;;;5013419;28;20029;-86
2022/07/25 04:43:29;;;;;;;5.10;4.50;;;27.70;66.90;;;;;;5014707;28;20041;-86
2022/07/25 04:45:55;;;;;;;6.10;4.80;;;27.70;66.80;;;;;;4996733;28;20072;-84
2022/07/25 04:48:21;;;;;;;11.02;5.72;;;27.70;66.80;;;;;;5015946;28;20120;-86
2022/07/25 04:50:47;;;;;;;7.47;5.22;;;27.80;66.70;;;;;;5015709;28;20469;-86
2022/07/25 04:53:13;;;;;;;7.38;4.97;;;27.80;66.80;;;;;;5013218;28;20041;-85
2022/07/25 04:55:39;;;;;;;7.38;4.97;;;27.80;66.70;;;;;;5013161;28;20030;-84
2022/07/25 04:58:05;;;;;;;7.68;5.13;;;28.00;66.80;;;;;;5015162;28;20084;-86
2022/07/25 05:00:31;;;;;;;5.68;4.90;;;28.00;66.80;;;;;;5015605;28;20846;-85
2022/07/25 05:02:57;;;;;;;5.63;4.68;;;28.00;66.80;;;;;;5014552;28;20107;-85
2022/07/25 05:05:23;;;;;;;5.97;4.68;;;28.00;66.70;;;;;;5013828;28;20022;-87
2022/07/25 05:07:54;;;;;;;6.45;4.95;;;28.10;66.70;;;;;;5015118;28;20096;-86
2022/07/25 05:10:21;;;;;;;5.78;4.57;;;28.10;66.60;;;;;;5014774;28;20037;-86
2022/07/25 05:12:46;;;;;;;5.20;4.45;;;28.10;66.60;;;;;;5000240;28;20386;-87
2022/07/25 05:15:13;;;;;;;7.53;5.03;;;28.20;66.60;;;;;;5016816;28;20064;-83
2022/07/25 05:17:38;;;;;;;5.90;5.15;;;28.30;66.50;;;;;;5018404;28;20037;-87
2022/07/25 05:20:05;;;;;;;7.38;4.60;;;28.30;66.40;;;;;;5006278;28;20037;-85
2022/07/25 05:22:31;;;;;;;5.70;4.95;;;28.40;66.50;;;;;;5018666;28;20042;-84
2022/07/25 05:24:57;;;;;;;5.85;4.68;;;28.40;66.50;;;;;;5018216;28;20408;-86
2022/07/25 05:27:24;;;;;;;5.20;4.70;;;28.40;66.40;;;;;;5018144;28;20080;-87
2022/07/25 05:29:50;;;;;;;6.75;4.65;;;28.50;66.40;;;;;;5017414;28;20488;-87
2022/07/25 05:32:16;;;;;;;4.80;4.38;;;28.50;66.30;;;;;;5019692;28;20440;-85
2022/07/25 05:34:41;;;;;;;6.10;4.72;;;28.50;66.40;;;;;;5016591;28;20041;-86
2022/07/25 05:37:07;;;;;;;5.38;4.57;;;28.50;66.30;;;;;;5018605;28;20491;-84
2022/07/25 05:39:33;;;;;;;6.25;4.63;;;28.60;66.30;;;;;;5024125;28;20029;-81
2022/07/25 05:41:59;;;;;;;6.18;4.38;;;28.60;66.30;;;;;;5042908;28;20041;-78
2022/07/25 05:44:25;;;;;;;5.07;4.40;;;28.60;66.20;;;;;;5041372;28;20045;-85
2022/07/25 05:46:51;;;;;;;6.13;4.15;;;28.70;66.20;;;;;;5037356;28;20039;-82
2022/07/25 05:49:17;;;;;;;6.20;4.53;;;28.80;66.30;;;;;;5023469;28;20037;-86
2022/07/25 05:51:43;;;;;;;5.93;4.68;;;28.80;66.10;;;;;;5019175;28;20034;-85
2022/07/25 05:54:09;;;;;;;5.00;4.50;;;28.90;65.90;;;;;;5014626;28;20428;-86
2022/07/25 05:56:35;;;;;;;6.90;4.50;;;28.90;65.90;;;;;;5018527;28;20100;-86
2022/07/25 05:59:01;;;;;;;8.25;4.90;;;28.90;65.90;;;;;;5017596;28;20065;-87
2022/07/25 06:01:27;;;;;;;4.90;4.40;;;29.00;65.90;;;;;;5017029;28;20038;-86
2022/07/25 06:03:53;;;;;;;4.80;4.13;;;29.00;65.80;;;;;;5014379;28;20136;-85
2022/07/25 06:06:18;;;;;;;7.07;4.95;;;29.10;65.70;;;;;;5019652;28;20044;-87
2022/07/25 06:08:44;;;;;;;6.80;4.40;;;29.10;65.40;;;;;;5018085;28;20517;-84
2022/07/25 06:11:10;;;;;;;6.55;4.72;;;29.10;65.30;;;;;;5017366;28;20450;-84
2022/07/25 06:13:36;;;;;;;5.07;4.68;;;29.10;65.20;;;;;;5017505;28;20087;-85
2022/07/25 06:16:02;;;;;;;5.43;4.28;;;28.90;65.30;;;;;;5017389;28;20441;-86
2022/07/25 06:18:29;;;;;;;5.45;4.93;;;28.90;65.50;;;;;;5017312;28;20033;-86
2022/07/25 06:20:55;;;;;;;5.00;4.47;;;28.90;65.40;;;;;;5014350;28;20168;-87
2022/07/25 06:23:21;;;;;;;6.30;4.88;;;28.90;65.30;;;;;;5016839;28;20532;-86
2022/07/25 06:25:47;;;;;;;4.75;4.35;;;28.90;65.50;;;;;;5016900;28;20045;-87
2022/07/25 06:28:14;;;;;;;5.18;4.35;;;29.00;65.60;;;;;;5016300;28;20037;-85
2022/07/25 06:30:44;;;;;;;6.57;4.32;;;29.00;65.50;;;;;;5016343;28;20527;-87
2022/07/25 06:33:11;;;;;;;5.93;4.72;;;29.10;65.30;;;;;;5005925;28;20038;-88
2022/07/25 06:35:37;;;;;;;6.63;4.47;;;29.10;65.30;;;;;;4983482;28;20489;-87
2022/07/25 06:38:03;;;;;;;4.70;4.30;;;29.20;65.40;;;;;;4997781;28;20041;-87
2022/07/25 06:40:29;;;;;;;4.35;3.97;;;29.30;65.30;;;;;;4996302;28;20402;-88
2022/07/25 06:42:55;;;;;;;4.85;4.28;;;29.30;65.30;;;;;;4978729;28;20062;-88
2022/07/25 06:45:22;;;;;;;5.80;4.30;;;29.20;65.20;;;;;;4980180;28;20109;-88
2022/07/25 06:47:48;;;;;;;5.95;4.43;;;29.30;65.40;;;;;;4996911;28;20104;-87
2022/07/25 06:50:17;;;;;;;6.82;4.55;;;29.20;65.40;;;;;;4996818;28;20022;-87
2022/07/25 06:52:44;;;;;;;6.80;5.03;;;29.20;65.50;;;;;;4998915;28;20513;-88
2022/07/25 06:55:12;;;;;;;6.13;4.47;;;29.20;65.60;;;;;;4988523;28;20134;-86
2022/07/25 06:57:38;;;;;;;8.80;4.60;;;29.10;65.70;;;;;;4999654;28;20038;-86
2022/07/25 07:00:08;;;;;;;5.20;4.70;;;29.00;65.70;;;;;;4994616;28;20034;-87
2022/07/25 07:02:45;;;;;;;6.68;4.72;;;29.00;66.00;;;;;;4995621;28;20042;-85
2022/07/25 07:05:11;;;;;;;7.65;4.70;;;29.00;66.20;;;;;;4998467;28;21271;-83
2022/07/25 07:07:37;;;;;;;6.70;4.95;;;28.80;66.20;;;;;;4996325;28;20045;-86
2022/07/25 07:10:03;;;;;;;5.07;4.57;;;28.80;65.50;;;;;;4997378;28;20045;-86
2022/07/25 07:12:29;;;;;;;5.35;4.80;;;28.70;65.90;;;;;;4995400;28;20124;-86
2022/07/25 07:14:55;;;;;;;7.47;5.03;;;28.80;65.90;;;;;;4995678;28;20065;-87
2022/07/25 07:17:21;;;;;;;6.70;4.85;;;28.70;66.10;;;;;;4996214;28;20068;-86
2022/07/25 07:19:47;;;;;;;5.50;4.82;;;28.60;66.30;;;;;;4993925;28;20050;-86
2022/07/25 07:22:13;;;;;;;6.43;4.65;;;28.60;66.40;;;;;;4994361;28;20045;-86
2022/07/25 07:24:39;;;;;;;5.15;4.65;;;28.60;66.40;;;;;;4996921;28;20080;-85
2022/07/25 07:27:05;;;;;;;5.45;4.95;;;28.50;66.30;;;;;;4995308;28;20034;-85
2022/07/25 07:29:31;;;;;;;5.15;4.65;;;28.50;66.40;;;;;;4996299;28;20076;-86
2022/07/25 07:31:57;;;;;;;4.75;4.35;;;28.50;66.70;;;;;;4996328;28;20030;-86
2022/07/25 07:34:23;;;;;;;5.32;4.82;;;28.50;66.90;;;;;;4997432;28;20034;-87
2022/07/25 07:36:48;;;;;;;4.43;4.03;;;28.50;66.90;;;;;;4996006;28;20033;-86
2022/07/25 07:39:15;;;;;;;5.57;4.38;;;28.60;67.00;;;;;;4995404;28;20069;-86
2022/07/25 07:41:41;;;;;;;5.10;4.50;;;28.60;67.00;;;;;;4995953;28;20113;-86
2022/07/25 07:44:07;;;;;;;5.80;4.80;;;28.60;66.90;;;;;;4995904;28;20037;-87
2022/07/25 07:46:33;;;;;;;5.88;4.38;;;28.60;66.90;;;;;;4994049;28;20397;-86
2022/07/25 07:48:59;;;;;;;6.95;4.55;;;28.60;67.00;;;;;;4981601;28;20040;-87
2022/07/25 07:51:25;;;;;;;5.35;4.85;;;28.50;66.90;;;;;;4994623;28;20042;-86
2022/07/25 07:56:35;;;;;;;5.33;4.83;;;28.40;66.90;;;;;;4993712;28;20062;-86
2022/07/25 07:59:01;;;;;;;5.05;4.40;;;28.40;66.90;;;;;;4995554;28;20308;-86
2022/07/25 08:01:27;;;;;;;4.88;4.40;;;28.40;66.80;;;;;;5010893;28;20548;-86
2022/07/25 08:03:54;;;;;;;5.18;4.70;;;28.40;66.60;;;;;;4993988;28;20053;-86
2022/07/25 08:06:20;;;;;;;5.07;4.15;;;28.40;66.90;;;;;;4994563;28;20030;-85
2022/07/25 08:08:46;;;;;;;5.35;4.47;;;28.40;66.90;;;;;;4995197;28;20038;-86
2022/07/25 08:11:12;;;;;;;6.15;4.30;;;28.50;67.00;;;;;;4996130;28;20036;-86
2022/07/25 08:13:38;;;;;;;4.60;4.05;;;28.50;66.90;;;;;;4995515;28;20034;-86
2022/07/25 08:16:05;;;;;;;7.80;4.80;;;28.50;66.70;;;;;;4995657;28;20045;-87
2022/07/25 08:18:32;;;;;;;6.10;4.60;;;28.50;66.50;;;;;;4996007;28;20038;-87
2022/07/25 08:21:01;;;;;;;5.88;4.00;;;28.50;66.50;;;;;;5014264;28;20034;-82
2022/07/25 08:23:27;;;;;;;4.90;4.50;;;28.50;66.50;;;;;;5008537;28;20090;-82
2022/07/25 08:25:54;;;;;;;4.82;4.40;;;28.50;66.30;;;;;;5017081;28;20050;-84
2022/07/25 08:28:19;;;;;;;5.53;4.72;;;28.50;66.50;;;;;;5001962;28;20060;-86
2022/07/25 08:30:47;;;;;;;5.72;4.75;;;28.40;66.30;;;;;;4996308;28;20121;-86
2022/07/25 08:33:16;;;;;;;5.47;4.68;;;28.40;66.40;;;;;;4994591;28;20688;-84
2022/07/25 08:35:52;;;;;;;7.60;4.80;;;28.40;66.30;;;;;;4997276;28;20033;-86
2022/07/25 08:38:19;;;;;;;5.10;4.60;;;28.40;66.30;;;;;;4983681;28;20022;-86
2022/07/25 08:40:46;;;;;;;9.30;4.93;;;28.30;66.40;;;;;;4993219;28;20034;-85
2022/07/25 08:43:13;;;;;;;5.28;4.78;;;28.40;66.40;;;;;;4996333;28;20039;-85
2022/07/25 08:45:46;;;;;;;6.15;5.03;;;28.30;66.20;;;;;;4995729;28;20034;-84
2022/07/25 08:48:15;;;;;;;6.13;4.80;;;28.30;66.30;;;;;;5013794;28;20031;-84
2022/07/25 08:50:42;;;;;;;5.70;5.10;;;28.30;66.40;;;;;;4998676;28;20045;-85
2022/07/25 08:53:08;;;;;;;5.50;4.70;;;28.30;66.40;;;;;;4998799;28;20026;-85
2022/07/25 08:55:34;;;;;;;5.70;4.72;;;28.30;66.50;;;;;;4997541;28;20034;-86
2022/07/25 08:57:59;;;;;;;5.38;4.80;;;28.30;66.80;;;;;;4999408;28;20038;-85
2022/07/25 09:00:30;;;;;;;5.35;4.78;;;28.30;66.90;;;;;;4998003;28;20042;-85
2022/07/25 09:03:05;;;;;;;5.93;4.88;;;28.30;66.90;;;;;;4998497;28;20046;-82
2022/07/25 09:05:32;;;;;;;5.53;4.82;;;28.30;66.90;;;;;;4998856;28;20041;-85
2022/07/25 09:08:09;;;;;;;5.93;4.85;;;28.30;66.90;;;;;;5000014;28;20026;-86
2022/07/25 09:10:36;;;;;;;6.90;4.85;;;28.30;66.90;;;;;;4997389;28;20447;-86
2022/07/25 09:13:09;;;;;;;5.13;4.63;;;28.20;66.80;;;;;;4999156;28;20040;-86
2022/07/25 09:15:43;;;;;;;7.32;4.65;;;28.20;66.90;;;;;;5000529;28;20485;-85
2022/07/25 09:18:13;;;;;;;5.53;5.03;;;28.30;67.00;;;;;;4998785;28;20179;-86
2022/07/25 09:20:52;;;;;;;5.70;5.10;;;28.20;67.10;;;;;;4998941;28;20080;-86
2022/07/25 09:23:28;;;;;;;5.90;4.80;;;28.20;67.10;;;;;;5000081;28;20080;-87
2022/07/25 09:26:21;;;;;;;5.30;4.80;;;28.20;67.20;;;;;;5032373;28;20580;-85
2022/07/25 09:28:50;;;;;;;7.70;5.30;;;28.20;67.20;;;;;;5005266;28;20041;-85
2022/07/25 09:31:17;;;;;;;6.60;5.28;;;28.20;67.20;;;;;;5020385;28;20030;-87
2022/07/25 09:33:53;;;;;;;6.80;5.07;;;28.20;67.20;;;;;;5024549;28;20472;-86
2022/07/25 09:36:18;;;;;;;5.65;5.15;;;28.20;67.20;;;;;;5026682;28;20029;-84
2022/07/25 09:38:55;;;;;;;8.88;5.65;;;28.20;67.20;;;;;;4990829;28;20045;-86
2022/07/25 09:41:31;;;;;;;5.45;4.78;;;28.20;67.10;;;;;;5023702;28;20053;-85
2022/07/25 09:43:57;;;;;;;6.00;5.20;;;28.20;67.20;;;;;;5025481;28;20571;-86
2022/07/25 09:46:30;;;;;;;5.80;5.20;;;28.20;67.00;;;;;;5025948;28;20044;-85
2022/07/25 09:48:57;;;;;;;8.45;5.68;;;28.20;67.00;;;;;;5025668;28;20119;-87
2022/07/25 09:51:27;;;;;;;6.22;5.60;;;28.20;66.80;;;;;;5024464;28;20403;-85
2022/07/25 09:53:53;;;;;;;5.93;5.20;;;28.20;66.80;;;;;;5026195;28;20045;-82
2022/07/25 09:56:19;;;;;;;8.63;5.32;;;28.20;67.00;;;;;;5025242;28;20443;-85
2022/07/25 09:58:45;;;;;;;6.28;5.68;;;28.20;66.90;;;;;;5023757;28;20033;-86
2022/07/25 10:01:19;;;;;;;7.32;5.10;;;28.20;66.90;;;;;;5024414;28;20497;-85
2022/07/25 10:03:51;;;;;;;7.07;5.22;;;28.20;66.90;;;;;;5022291;28;20058;-87
2022/07/25 10:06:45;;;;;;;6.40;5.45;;;28.20;66.90;;;;;;5022569;28;20125;-85
2022/07/25 10:09:12;;;;;;;6.00;5.50;;;28.20;66.90;;;;;;5021143;28;20459;-85
2022/07/25 10:11:39;;;;;;;6.22;5.30;;;28.10;66.90;;;;;;5025287;28;20117;-85
2022/07/25 10:14:11;;;;;;;7.38;5.18;;;28.10;66.90;;;;;;5022618;28;20073;-85
2022/07/25 10:16:47;;;;;;;6.47;5.53;;;28.10;66.90;;;;;;5017521;28;20142;-85
2022/07/25 10:19:13;;;;;;;5.90;5.38;;;28.20;67.00;;;;;;5015929;28;20418;-82
2022/07/25 10:21:39;;;;;;;6.10;5.22;;;28.10;66.90;;;;;;5016446;28;20412;-84
2022/07/25 10:24:07;;;;;;;7.47;5.20;;;28.10;66.90;;;;;;5015235;28;20049;-85
2022/07/25 10:26:51;;;;;;;6.40;5.78;;;28.10;66.80;;;;;;5015807;28;20059;-84
2022/07/25 10:29:17;;;;;;;6.43;5.60;;;28.10;66.70;;;;;;5017338;28;20038;-84
2022/07/25 10:31:46;;;;;;;5.93;5.43;;;28.10;66.80;;;;;;5018242;28;20060;-86
2022/07/25 10:34:13;;;;;;;6.85;5.43;;;28.10;66.70;;;;;;5018091;28;20291;-82
2022/07/25 10:36:55;;;;;;;6.55;5.57;;;28.10;66.70;;;;;;5033753;28;20045;-85
2022/07/25 10:39:22;;;;;;;6.63;5.40;;;28.10;66.70;;;;;;5017095;28;20140;-86
2022/07/25 10:41:53;;;;;;;7.93;5.65;;;28.10;66.80;;;;;;5015513;28;20049;-86
2022/07/25 10:44:19;;;;;;;6.78;5.75;;;28.10;66.80;;;;;;5016420;28;20037;-86
2022/07/25 10:46:45;;;;;;;5.85;5.32;;;28.10;66.90;;;;;;5017108;28;20041;-85
2022/07/25 10:49:24;;;;;;;5.72;5.22;;;28.00;66.90;;;;;;5017074;28;20508;-85
2022/07/25 10:52:02;;;;;;;5.45;5.00;;;28.10;66.90;;;;;;5019982;28;20041;-86
2022/07/25 10:54:38;;;;;;;6.70;5.10;;;28.10;66.90;;;;;;5016201;28;20030;-86
2022/07/25 10:57:12;;;;;;;7.45;5.78;;;28.00;66.10;;;;;;5017409;28;20029;-85
2022/07/25 10:59:38;;;;;;;6.22;5.63;;;28.00;66.50;;;;;;5017510;28;20239;-86
2022/07/25 11:02:08;;;;;;;7.65;5.28;;;28.10;66.90;;;;;;5026252;28;20033;-86
2022/07/25 11:04:35;;;;;;;6.32;5.32;;;28.10;67.20;;;;;;5017681;28;20049;-84
2022/07/25 11:07:08;;;;;;;6.53;5.88;;;28.00;66.60;;;;;;5017149;28;20037;-85
2022/07/25 11:09:35;;;;;;;6.05;5.45;;;28.00;66.50;;;;;;5016666;28;20056;-85
2022/07/25 11:12:01;;;;;;;7.90;5.80;;;28.10;66.70;;;;;;5017844;28;20063;-84
2022/07/25 11:14:39;;;;;;;6.03;5.43;;;28.10;66.60;;;;;;5016758;28;20037;-85
2022/07/25 11:17:21;;;;;;;6.40;5.30;;;28.10;66.60;;;;;;5018857;28;20397;-85
2022/07/25 11:19:59;;;;;;;6.68;5.40;;;28.10;66.40;;;;;;5016579;28;20040;-85
2022/07/25 11:22:26;;;;;;;6.25;5.65;;;28.10;66.60;;;;;;5016034;28;20049;-85
2022/07/25 11:24:52;;;;;;;7.40;5.85;;;28.10;66.60;;;;;;5017969;28;20044;-85
2022/07/25 11:27:29;;;;;;;6.30;5.80;;;28.00;66.30;;;;;;5010339;28;20034;-85
2022/07/25 11:30:08;;;;;;;6.68;5.97;;;28.10;66.30;;;;;;5020251;28;20045;-83
2022/07/25 11:32:42;;;;;;;7.22;6.40;;;28.10;66.30;;;;;;5018441;28;20409;-85
2022/07/25 11:35:10;;;;;;;5.80;5.32;;;28.10;66.20;;;;;;5016536;28;20034;-85
2022/07/25 11:37:46;;;;;;;6.80;6.18;;;28.00;66.30;;;;;;5016908;28;20033;-85
2022/07/25 11:40:15;;;;;;;6.32;5.82;;;28.00;66.30;;;;;;5016376;28;20526;-86
2022/07/25 11:42:43;;;;;;;6.78;6.05;;;28.00;66.40;;;;;;5020618;28;20045;-84
2022/07/25 11:45:35;;;;;;;6.15;5.65;;;28.00;66.40;;;;;;5017393;28;20036;-86
2022/07/25 11:48:09;;;;;;;6.68;6.00;;;28.00;66.30;;;;;;5015139;28;20452;-84
2022/07/25 11:50:40;;;;;;;7.40;6.53;;;28.00;66.30;;;;;;5013600;28;20034;-83
2022/07/25 11:53:08;;;;;;;7.13;6.25;;;28.00;66.40;;;;;;5016805;28;20567;-85
2022/07/25 11:55:39;;;;;;;7.18;5.97;;;28.00;66.50;;;;;;5014529;28;20116;-85
2022/07/25 11:58:05;;;;;;;7.00;5.95;;;28.00;67.00;;;;;;5004659;28;20045;-85
2022/07/25 12:00:40;;;;;;;8.73;6.50;;;28.00;66.30;;;;;;5014912;28;20417;-86
2022/07/25 12:03:07;;;;;;;8.15;6.25;;;28.00;66.40;;;;;;5018967;28;20131;-85
2022/07/25 12:05:33;;;;;;;6.82;6.13;;;28.00;66.40;;;;;;5021188;28;20292;-83
2022/07/25 12:08:11;;;;;;;6.43;5.90;;;28.00;66.40;;;;;;5020127;28;20033;-86
2022/07/25 12:10:38;;;;;;;7.18;6.40;;;28.00;66.40;;;;;;5019874;28;20033;-84
2022/07/25 12:13:06;;;;;;;7.18;6.57;;;28.00;66.40;;;;;;5019680;28;20058;-86
2022/07/25 12:15:37;;;;;;;7.65;6.60;;;28.00;66.30;;;;;;5023351;28;20408;-85
2022/07/25 12:18:04;;;;;;;8.05;6.97;;;28.00;66.30;;;;;;5023454;28;20045;-83
2022/07/25 12:20:33;;;;;;;6.65;6.10;;;28.00;66.30;;;;;;5025114;28;20022;-85
2022/07/25 12:23:03;;;;;;;8.38;6.50;;;28.00;66.10;;;;;;5023788;28;20026;-82
2022/07/25 12:25:30;;;;;;;8.07;6.53;;;28.00;66.00;;;;;;5023787;28;20030;-84
2022/07/25 12:27:57;;;;;;;6.70;6.10;;;28.00;65.90;;;;;;5023884;28;20033;-83
2022/07/25 12:30:24;;;;;;;6.82;6.20;;;28.00;65.90;;;;;;5025602;28;20497;-85
2022/07/25 12:32:50;;;;;;;6.60;6.00;;;28.00;65.90;;;;;;5022609;28;20049;-83
2022/07/25 12:35:16;;;;;;;7.45;6.70;;;27.90;66.50;;;;;;5021351;28;20029;-86
2022/07/25 12:37:43;;;;;;;7.15;6.45;;;28.00;65.90;;;;;;5019614;28;20033;-84
2022/07/25 12:40:11;;;;;;;7.20;6.50;;;28.00;65.80;;;;;;5023532;28;20076;-86
2022/07/25 12:42:37;;;;;;;6.72;6.22;;;27.90;65.50;;;;;;5022145;28;20065;-85
2022/07/25 12:45:03;;;;;;;8.15;6.78;;;27.90;65.50;;;;;;5023152;28;20038;-85
2022/07/25 12:47:29;;;;;;;6.95;6.30;;;28.00;65.60;;;;;;5018999;28;21640;-87
2022/07/25 12:49:55;;;;;;;6.75;6.07;;;27.90;65.60;;;;;;5021231;28;20033;-85
2022/07/25 12:52:23;;;;;;;6.97;6.38;;;27.90;65.60;;;;;;5022875;28;20417;-86